createdAt,value
2017-05-22T00:02:16.756Z,62.20
2017-05-22T00:04:43.680Z,62.80
2017-05-22T00:07:10.588Z,63.60
2017-05-22T00:09:38.270Z,64.30
2017-05-22T00:12:05.180Z,63.70
2017-05-22T00:14:32.111Z,64.10
2017-05-22T00:16:59.458Z,65.30
2017-05-22T00:19:26.411Z,64.40
2017-05-22T00:21:53.336Z,65.40
2017-05-22T00:24:20.613Z,65.20
2017-05-22T00:26:47.508Z,64.30
2017-05-22T00:29:14.419Z,64.10
2017-05-22T00:31:41.754Z,64.30
2017-05-22T00:34:08.680Z,64.40
2017-05-22T00:36:35.572Z,65.00
2017-05-22T00:39:02.913Z,64.50
2017-05-22T00:41:29.856Z,64.60
2017-05-22T00:43:57.289Z,64.60
2017-05-22T00:46:24.561Z,65.10
2017-05-22T00:48:51.487Z,66.60
2017-05-22T00:51:18.410Z,67.40
2017-05-22T00:53:45.689Z,65.90
2017-05-22T00:56:12.611Z,65.40
2017-05-22T00:58:39.507Z,64.20
2017-05-22T01:01:06.825Z,64.40
2017-05-22T01:03:33.730Z,65.40
2017-05-22T01:06:00.644Z,65.90
2017-05-22T01:08:27.973Z,65.50
2017-05-22T01:10:54.896Z,64.80
2017-05-22T01:13:21.813Z,65.00
2017-05-22T01:15:49.235Z,64.40
2017-05-22T01:18:16.156Z,64.30
2017-05-22T01:20:43.074Z,64.60
2017-05-22T01:23:10.345Z,65.00
2017-05-22T01:25:37.252Z,64.50
2017-05-22T01:28:04.155Z,63.90
2017-05-22T01:30:31.448Z,64.00
2017-05-22T01:32:58.466Z,64.50
2017-05-22T01:35:25.377Z,65.80
2017-05-22T01:37:52.661Z,65.40
2017-05-22T01:40:19.589Z,65.10
2017-05-22T01:42:46.496Z,65.60
2017-05-22T01:45:13.800Z,66.20
2017-05-22T01:47:40.730Z,65.60
2017-05-22T01:50:07.668Z,65.30
2017-05-22T01:52:34.968Z,65.70
2017-05-22T01:55:01.880Z,67.40
2017-05-22T01:57:28.771Z,67.50
2017-05-22T01:59:56.076Z,67.50
2017-05-22T02:02:22.989Z,68.00
2017-05-22T02:04:49.891Z,67.70
2017-05-22T02:07:18.239Z,68.70
2017-05-22T02:09:45.160Z,68.80
2017-05-22T02:12:12.088Z,68.30
2017-05-22T02:14:39.713Z,69.50
2017-05-22T02:17:06.632Z,69.30
2017-05-22T02:19:34.053Z,68.70
2017-05-22T02:22:01.577Z,69.30
2017-05-22T02:24:28.492Z,69.10
2017-05-22T02:26:55.420Z,68.50
2017-05-22T02:29:22.835Z,67.60
2017-05-22T02:31:49.753Z,67.60
2017-05-22T02:34:16.681Z,67.40
2017-05-22T02:36:43.949Z,67.20
2017-05-22T02:39:10.868Z,67.20
2017-05-22T02:41:37.780Z,67.50
2017-05-22T02:44:05.092Z,67.80
2017-05-22T02:46:31.999Z,68.20
2017-05-22T02:48:58.894Z,68.80
2017-05-22T02:51:26.141Z,68.80
2017-05-22T02:53:53.032Z,69.30
2017-05-22T02:56:19.945Z,70.90
2017-05-22T02:58:47.401Z,70.00
2017-05-22T03:01:14.344Z,70.00
2017-05-22T03:03:41.245Z,70.20
2017-05-22T03:06:08.547Z,69.40
2017-05-22T03:08:35.457Z,70.80
2017-05-22T03:11:02.365Z,70.30
2017-05-22T03:13:29.694Z,70.00
2017-05-22T03:15:56.640Z,70.40
2017-05-22T03:18:23.544Z,70.50
2017-05-22T03:20:50.937Z,70.50
2017-05-22T03:23:17.869Z,69.40
2017-05-22T03:25:44.804Z,69.30
2017-05-22T03:28:12.179Z,69.30
2017-05-22T03:30:39.111Z,69.90
2017-05-22T03:33:06.037Z,70.30
2017-05-22T03:35:33.432Z,69.50
2017-05-22T03:38:00.345Z,69.90
2017-05-22T03:40:27.288Z,70.50
2017-05-22T03:42:54.660Z,70.90
2017-05-22T03:45:21.579Z,71.20
2017-05-22T03:47:48.530Z,70.60
2017-05-22T03:50:15.825Z,70.80
2017-05-22T03:52:42.771Z,70.90
2017-05-22T03:55:09.682Z,70.70
2017-05-22T03:57:37.052Z,70.20
2017-05-22T04:00:03.981Z,68.90
2017-05-22T04:02:30.877Z,68.40
2017-05-22T04:04:58.218Z,69.60
2017-05-22T04:07:25.153Z,69.60
2017-05-22T04:09:52.144Z,70.30
2017-05-22T04:12:19.549Z,70.00
2017-05-22T04:14:46.461Z,68.40
2017-05-22T04:17:13.392Z,68.40
2017-05-22T04:19:40.700Z,68.20
2017-05-22T04:22:07.613Z,67.20
2017-05-22T04:24:34.531Z,68.60
2017-05-22T04:27:01.849Z,69.10
2017-05-22T04:29:28.784Z,70.20
2017-05-22T04:31:55.705Z,67.00
2017-05-22T04:34:22.993Z,67.00
2017-05-22T04:36:49.912Z,65.40
2017-05-22T04:39:16.876Z,66.20
2017-05-22T04:41:44.221Z,67.00
2017-05-22T04:44:11.177Z,68.70
2017-05-22T04:46:38.090Z,68.40
2017-05-22T04:49:05.980Z,67.50
2017-05-22T04:51:32.892Z,66.20
2017-05-22T04:53:59.772Z,65.90
2017-05-22T04:56:27.108Z,66.20
2017-05-22T04:58:54.052Z,64.00
2017-05-22T05:01:20.960Z,65.80
2017-05-22T05:03:48.201Z,65.90
2017-05-22T05:06:15.128Z,66.20
2017-05-22T05:08:42.072Z,65.90
2017-05-22T05:11:09.318Z,65.80
2017-05-22T05:13:36.265Z,65.50
2017-05-22T05:16:03.197Z,63.60
2017-05-22T05:18:30.520Z,63.30
2017-05-22T05:20:57.465Z,62.20
2017-05-22T05:23:24.413Z,61.40
2017-05-22T05:25:52.258Z,60.60
2017-05-22T05:28:19.185Z,58.80
2017-05-22T05:30:46.109Z,60.40
2017-05-22T05:33:13.412Z,61.70
2017-05-22T05:35:40.313Z,61.00
2017-05-22T05:38:07.256Z,61.60
2017-05-22T05:40:34.548Z,60.40
2017-05-22T05:43:01.467Z,60.50
2017-05-22T05:45:28.420Z,61.20
2017-05-22T05:47:56.389Z,57.50
2017-05-22T05:50:23.340Z,58.00
2017-05-22T05:52:50.241Z,58.50
2017-05-22T05:55:17.539Z,61.70
2017-05-22T05:57:44.464Z,59.70
2017-05-22T06:00:11.390Z,59.30
2017-05-22T06:02:38.656Z,58.40
2017-05-22T06:05:05.604Z,59.30
2017-05-22T06:07:32.549Z,57.40
2017-05-22T06:09:59.917Z,56.60
2017-05-22T06:12:26.845Z,54.70
2017-05-22T06:14:53.775Z,56.60
2017-05-22T06:17:21.141Z,55.00
2017-05-22T06:19:48.052Z,56.30
2017-05-22T06:22:14.991Z,54.50
2017-05-22T06:24:42.274Z,54.60
2017-05-22T06:27:09.196Z,52.10
2017-05-22T06:29:36.110Z,52.80
2017-05-22T06:32:03.416Z,53.70
2017-05-22T06:34:30.317Z,53.70
2017-05-22T06:36:57.256Z,54.90
2017-05-22T06:39:24.555Z,54.70
2017-05-22T06:41:51.492Z,56.50
2017-05-22T06:44:18.381Z,55.50
2017-05-22T06:46:45.688Z,56.70
2017-05-22T06:49:12.623Z,55.10
2017-05-22T06:51:39.556Z,54.60
2017-05-22T06:54:06.811Z,54.70
2017-05-22T06:56:33.741Z,54.10
2017-05-22T06:59:00.643Z,52.20
2017-05-22T07:01:28.053Z,52.80
2017-05-22T07:03:54.965Z,54.50
2017-05-22T07:06:21.920Z,53.40
2017-05-22T07:08:49.309Z,53.10
2017-05-22T07:11:16.277Z,51.50
2017-05-22T07:13:43.237Z,53.80
2017-05-22T07:16:10.628Z,53.90
2017-05-22T07:18:37.537Z,53.20
2017-05-22T07:21:04.502Z,53.70
2017-05-22T07:23:31.866Z,53.60
2017-05-22T07:25:58.779Z,53.00
2017-05-22T07:28:25.693Z,52.90
2017-05-22T07:30:52.996Z,54.10
2017-05-22T07:33:19.918Z,53.70
2017-05-22T07:35:46.823Z,54.40
2017-05-22T07:38:14.142Z,53.50
2017-05-22T07:40:41.089Z,51.90
2017-05-22T07:43:08.061Z,51.90
2017-05-22T07:45:35.377Z,49.30
2017-05-22T07:48:02.304Z,50.10
2017-05-22T07:50:29.221Z,51.70
2017-05-22T07:52:56.513Z,52.30
2017-05-22T07:55:23.427Z,50.90
2017-05-22T07:57:50.360Z,51.30
2017-05-22T08:00:17.645Z,51.20
2017-05-22T08:02:44.567Z,51.40
2017-05-22T08:05:11.500Z,51.30
2017-05-22T08:07:38.797Z,50.80
2017-05-22T08:10:05.783Z,52.10
2017-05-22T08:12:33.233Z,50.50
2017-05-22T08:15:00.498Z,51.30
2017-05-22T08:17:27.512Z,50.60
2017-05-22T08:19:54.448Z,50.60
2017-05-22T08:22:21.785Z,47.80
2017-05-22T08:24:48.704Z,49.70
2017-05-22T08:27:15.660Z,50.90
2017-05-22T08:29:43.010Z,48.00
2017-05-22T08:32:09.920Z,49.00
2017-05-22T08:34:36.828Z,47.30
2017-05-22T08:37:04.128Z,49.30
2017-05-22T08:39:31.037Z,48.30
2017-05-22T08:41:57.992Z,45.90
2017-05-22T08:44:25.266Z,46.30
2017-05-22T08:46:52.175Z,46.20
2017-05-22T08:49:19.122Z,47.60
2017-05-22T08:51:47.051Z,46.60
2017-05-22T08:54:13.993Z,47.40
2017-05-22T08:56:40.960Z,45.80
2017-05-22T08:59:08.251Z,46.20
2017-05-22T09:01:35.196Z,46.80
2017-05-22T09:04:02.118Z,47.40
2017-05-22T09:06:29.413Z,48.60
2017-05-22T09:08:56.321Z,47.90
2017-05-22T09:11:23.289Z,49.00
2017-05-22T09:13:50.743Z,47.30
2017-05-22T09:16:17.642Z,46.10
2017-05-22T09:18:44.562Z,46.50
2017-05-22T09:21:11.872Z,48.00
2017-05-22T09:23:38.860Z,49.50
2017-05-22T09:26:06.465Z,48.10
2017-05-22T09:28:33.725Z,46.90
2017-05-22T09:31:00.662Z,47.10
2017-05-22T09:33:27.596Z,47.20
2017-05-22T09:35:54.955Z,48.10
2017-05-22T09:38:21.876Z,47.30
2017-05-22T09:40:48.797Z,45.10
2017-05-22T09:43:16.118Z,46.20
2017-05-22T09:45:43.042Z,44.00
2017-05-22T09:48:09.988Z,43.80
2017-05-22T09:50:37.218Z,43.70
2017-05-22T09:53:04.161Z,40.70
2017-05-22T09:55:31.085Z,40.90
2017-05-22T09:57:58.357Z,41.90
2017-05-22T10:00:25.261Z,40.70
2017-05-22T10:02:52.171Z,41.20
2017-05-22T10:05:19.420Z,41.70
2017-05-22T10:07:46.375Z,43.10
2017-05-22T10:10:13.339Z,41.40
2017-05-22T10:12:40.547Z,39.40
2017-05-22T10:15:07.492Z,39.20
2017-05-22T10:17:34.394Z,39.50
2017-05-22T10:20:01.689Z,39.70
2017-05-22T10:22:28.593Z,40.10
2017-05-22T10:24:55.531Z,41.30
2017-05-22T10:27:22.800Z,44.40
2017-05-22T10:29:49.748Z,44.10
2017-05-22T10:32:16.738Z,45.10
2017-05-22T10:34:44.037Z,44.10
2017-05-22T10:37:10.971Z,44.00
2017-05-22T10:39:37.929Z,44.30
2017-05-22T10:42:05.294Z,41.80
2017-05-22T10:44:32.258Z,43.50
2017-05-22T10:46:59.191Z,44.00
2017-05-22T10:49:26.458Z,44.20
2017-05-22T10:51:53.379Z,43.40
2017-05-22T10:54:20.298Z,43.50
2017-05-22T10:56:47.573Z,41.60
2017-05-22T10:59:14.524Z,42.40
2017-05-22T11:01:41.467Z,41.50
2017-05-22T11:04:08.732Z,42.00
2017-05-22T11:06:35.680Z,39.80
2017-05-22T11:09:02.781Z,40.00
2017-05-22T11:11:30.030Z,41.30
2017-05-22T11:13:56.961Z,41.20
2017-05-22T11:16:23.896Z,41.10
2017-05-22T11:18:51.170Z,41.10
2017-05-22T11:21:18.103Z,40.20
2017-05-22T11:23:45.031Z,40.20
2017-05-22T11:26:12.419Z,40.20
2017-05-22T11:28:39.373Z,37.60
2017-05-22T11:31:06.305Z,38.60
2017-05-22T11:33:33.620Z,38.50
2017-05-22T11:36:00.565Z,37.10
2017-05-22T11:38:27.505Z,37.40
2017-05-22T11:40:54.876Z,38.00
2017-05-22T11:43:21.793Z,37.10
2017-05-22T11:45:48.737Z,37.80
2017-05-22T11:48:16.009Z,37.90
2017-05-22T11:50:42.933Z,37.60
2017-05-22T11:53:09.842Z,37.80
2017-05-22T11:55:37.157Z,38.00
2017-05-22T11:58:04.105Z,37.60
2017-05-22T12:00:31.051Z,38.50
2017-05-22T12:02:58.390Z,39.50
2017-05-22T12:05:25.321Z,39.40
2017-05-22T12:07:52.250Z,35.70
2017-05-22T12:10:19.519Z,38.90
2017-05-22T12:12:46.458Z,36.20
2017-05-22T12:15:13.389Z,34.70
2017-05-22T12:17:40.785Z,37.50
2017-05-22T12:20:07.800Z,35.40
2017-05-22T12:22:34.729Z,35.70
2017-05-22T12:25:02.096Z,34.80
2017-05-22T12:27:29.068Z,35.60
2017-05-22T12:29:56.006Z,33.60
2017-05-22T12:32:23.345Z,34.90
2017-05-22T12:34:50.261Z,36.10
2017-05-22T12:37:17.169Z,36.20
2017-05-22T12:39:44.481Z,34.70
2017-05-22T12:42:11.397Z,34.80
2017-05-22T12:44:38.329Z,33.40
2017-05-22T12:47:05.701Z,35.20
2017-05-22T12:49:32.612Z,36.90
2017-05-22T12:51:59.588Z,36.90
2017-05-22T12:54:26.942Z,33.70
2017-05-22T12:56:53.864Z,36.10
2017-05-22T12:59:20.785Z,32.00
2017-05-22T13:01:48.188Z,33.40
2017-05-22T13:04:15.124Z,32.60
2017-05-22T13:06:42.052Z,33.50
2017-05-22T13:09:09.298Z,34.00
2017-05-22T13:11:36.256Z,31.40
2017-05-22T13:14:03.177Z,31.80
2017-05-22T13:16:30.464Z,32.00
2017-05-22T13:18:57.396Z,32.40
2017-05-22T13:21:24.329Z,31.50
2017-05-22T13:23:51.673Z,30.90
2017-05-22T13:26:18.603Z,29.70
2017-05-22T13:28:45.570Z,31.20
2017-05-22T13:31:12.912Z,31.60
2017-05-22T13:33:39.861Z,32.10
2017-05-22T13:36:06.781Z,33.10
2017-05-22T13:38:34.164Z,31.20
2017-05-22T13:41:01.074Z,30.20
2017-05-22T13:43:28.010Z,30.00
2017-05-22T13:45:55.306Z,30.00
2017-05-22T13:48:22.222Z,29.80
2017-05-22T13:50:49.136Z,28.00
2017-05-22T13:53:16.422Z,28.60
2017-05-22T13:55:43.359Z,28.90
2017-05-22T13:58:10.326Z,28.80
2017-05-22T14:00:37.607Z,27.60
2017-05-22T14:03:04.610Z,27.00
2017-05-22T14:05:31.531Z,26.80
2017-05-22T14:08:01.589Z,26.40
2017-05-22T14:10:28.557Z,26.50
2017-05-22T14:12:55.525Z,25.50
2017-05-22T14:15:22.921Z,25.10
2017-05-22T14:17:49.851Z,25.10
2017-05-22T14:20:16.809Z,27.20
2017-05-22T14:22:44.048Z,26.80
2017-05-22T14:25:10.977Z,28.80
2017-05-22T14:27:37.928Z,27.40
2017-05-22T14:30:05.268Z,28.00
2017-05-22T14:32:32.209Z,29.40
2017-05-22T14:34:59.133Z,29.10
2017-05-22T14:37:26.448Z,29.00
2017-05-22T14:39:53.460Z,29.70
2017-05-22T14:42:20.405Z,28.60
2017-05-22T14:44:47.753Z,26.50
2017-05-22T14:47:14.654Z,25.00
2017-05-22T14:49:41.588Z,24.90
2017-05-22T14:52:08.887Z,24.10
2017-05-22T14:54:35.859Z,24.70
2017-05-22T14:57:02.803Z,23.80
2017-05-22T14:59:29.981Z,24.30
2017-05-22T15:01:57.077Z,25.00
2017-05-22T15:04:24.022Z,23.50
2017-05-22T15:06:51.371Z,21.90
2017-05-22T15:09:18.298Z,20.90
2017-05-22T15:11:45.241Z,21.20
2017-05-22T15:14:12.580Z,20.30
2017-05-22T15:16:39.528Z,20.30
2017-05-22T15:19:09.604Z,21.30
2017-05-22T15:21:36.905Z,24.10
2017-05-22T15:24:03.813Z,26.70
2017-05-22T15:26:30.752Z,25.20
2017-05-22T15:28:58.043Z,24.10
2017-05-22T15:31:24.964Z,22.00
2017-05-22T15:33:51.905Z,21.30
2017-05-22T15:36:19.400Z,21.30
2017-05-22T15:38:46.305Z,22.30
2017-05-22T15:41:13.208Z,22.00
2017-05-22T15:43:40.508Z,21.70
2017-05-22T15:46:07.462Z,22.90
2017-05-22T15:48:34.394Z,21.30
2017-05-22T15:51:01.669Z,21.50
2017-05-22T15:53:28.588Z,21.70
2017-05-22T15:55:55.501Z,22.00
2017-05-22T15:58:22.780Z,22.40
2017-05-22T16:00:49.720Z,23.70
2017-05-22T16:03:16.636Z,22.20
2017-05-22T16:05:43.929Z,21.70
2017-05-22T16:08:10.872Z,22.30
2017-05-22T16:10:37.812Z,23.00
2017-05-22T16:13:05.146Z,21.60
2017-05-22T16:15:32.076Z,22.10
2017-05-22T16:17:59.016Z,20.00
2017-05-22T16:20:26.403Z,20.70
2017-05-22T16:22:53.330Z,21.00
2017-05-22T16:25:20.241Z,21.40
2017-05-22T16:27:48.164Z,22.20
2017-05-22T16:30:15.090Z,23.60
2017-05-22T16:32:41.992Z,23.30
2017-05-22T16:35:09.292Z,22.30
2017-05-22T16:37:36.210Z,22.50
2017-05-22T16:40:03.135Z,22.90
2017-05-22T16:42:30.418Z,23.20
2017-05-22T16:44:57.345Z,23.00
2017-05-22T16:47:24.250Z,24.10
2017-05-22T16:49:51.447Z,24.40
2017-05-22T16:52:18.736Z,25.00
2017-05-22T16:54:45.675Z,25.70
2017-05-22T16:57:13.005Z,25.60
2017-05-22T16:59:39.928Z,26.30
2017-05-22T17:02:06.863Z,26.10
2017-05-22T17:04:34.114Z,25.90
2017-05-22T17:07:01.048Z,25.60
2017-05-22T17:09:27.967Z,25.90
2017-05-22T17:11:55.255Z,25.40
2017-05-22T17:14:22.164Z,25.00
2017-05-22T17:16:49.077Z,25.60
2017-05-22T17:19:16.397Z,25.40
2017-05-22T17:21:43.306Z,25.40
2017-05-22T17:24:10.257Z,25.00
2017-05-22T17:26:37.525Z,25.40
2017-05-22T17:29:04.444Z,25.20
2017-05-22T17:31:31.406Z,26.10
2017-05-22T17:33:58.784Z,25.10
2017-05-22T17:36:25.711Z,25.10
2017-05-22T17:38:52.628Z,25.80
2017-05-22T17:41:19.897Z,25.70
2017-05-22T17:43:46.848Z,24.20
2017-05-22T17:46:13.757Z,24.50
2017-05-22T17:48:41.137Z,25.60
2017-05-22T17:51:08.040Z,26.50
2017-05-22T17:53:35.013Z,26.30
2017-05-22T17:56:02.413Z,26.50
2017-05-22T17:58:29.365Z,26.50
2017-05-22T18:00:56.286Z,27.60
2017-05-22T18:03:23.628Z,26.90
2017-05-22T18:05:50.579Z,26.90
2017-05-22T18:08:17.526Z,28.00
2017-05-22T18:10:44.841Z,29.00
2017-05-22T18:13:11.777Z,25.70
2017-05-22T18:15:38.700Z,26.70
2017-05-22T18:18:05.981Z,28.80
2017-05-22T18:20:32.902Z,28.70
2017-05-22T18:22:59.841Z,29.90
2017-05-22T18:25:27.333Z,29.70
2017-05-22T18:27:54.272Z,30.40
2017-05-22T18:30:21.228Z,31.70
2017-05-22T18:32:48.488Z,32.30
2017-05-22T18:35:15.432Z,31.80
2017-05-22T18:37:42.341Z,32.10
2017-05-22T18:40:09.808Z,30.80
2017-05-22T18:42:36.737Z,31.40
2017-05-22T18:45:03.645Z,30.60
2017-05-22T18:47:30.957Z,30.20
2017-05-22T18:49:57.994Z,31.10
2017-05-22T18:52:24.914Z,33.00
2017-05-22T18:54:52.302Z,33.80
2017-05-22T18:57:19.228Z,34.20
2017-05-22T18:59:46.272Z,35.00
2017-05-22T19:02:13.629Z,34.80
2017-05-22T19:04:40.766Z,35.80
2017-05-22T19:07:07.768Z,38.10
2017-05-22T19:09:35.288Z,38.60
2017-05-22T19:12:02.216Z,39.00
2017-05-22T19:14:29.136Z,41.60
2017-05-22T19:16:56.512Z,40.50
2017-05-22T19:19:24.423Z,40.10
2017-05-22T19:21:51.345Z,41.50
2017-05-22T19:24:18.704Z,41.80
2017-05-22T19:26:45.616Z,43.30
2017-05-22T19:29:12.575Z,43.20
2017-05-22T19:31:39.828Z,44.20
2017-05-22T19:34:06.717Z,43.70
2017-05-22T19:36:33.679Z,44.10
2017-05-22T19:39:00.984Z,44.70
2017-05-22T19:41:27.921Z,44.50
2017-05-22T19:43:54.860Z,45.10
2017-05-22T19:46:22.251Z,44.60
2017-05-22T19:48:49.184Z,43.80
2017-05-22T19:51:16.179Z,44.90
2017-05-22T19:53:43.469Z,45.70
2017-05-22T19:56:10.373Z,45.50
2017-05-22T19:58:37.294Z,45.60
2017-05-22T20:01:04.608Z,46.30
2017-05-22T20:03:31.501Z,46.60
2017-05-22T20:05:58.463Z,46.90
2017-05-22T20:08:25.895Z,47.40
2017-05-22T20:10:52.863Z,47.30
2017-05-22T20:13:19.771Z,47.00
2017-05-22T20:15:47.109Z,47.40
2017-05-22T20:18:14.074Z,46.80
2017-05-22T20:20:40.994Z,47.20
2017-05-22T20:23:08.217Z,47.50
2017-05-22T20:25:35.134Z,46.90
2017-05-22T20:28:02.068Z,46.90
2017-05-22T20:30:29.408Z,48.00
2017-05-22T20:32:56.332Z,47.30
2017-05-22T20:35:23.233Z,48.20
2017-05-22T20:37:50.503Z,48.10
2017-05-22T20:40:17.462Z,49.00
2017-05-22T20:42:44.398Z,48.90
2017-05-22T20:45:11.779Z,48.20
2017-05-22T20:47:38.793Z,48.50
2017-05-22T20:50:05.766Z,48.70
2017-05-22T20:52:33.163Z,48.30
2017-05-22T20:55:00.073Z,48.40
2017-05-22T20:57:26.972Z,48.10
2017-05-22T20:59:54.382Z,49.90
2017-05-22T21:02:21.313Z,49.60
2017-05-22T21:04:48.249Z,49.60
2017-05-22T21:07:15.627Z,51.40
2017-05-22T21:09:42.590Z,51.30
2017-05-22T21:12:09.525Z,49.30
2017-05-22T21:14:36.893Z,48.30
2017-05-22T21:17:03.831Z,49.20
2017-05-22T21:19:30.712Z,49.20
2017-05-22T21:21:58.016Z,50.30
2017-05-22T21:24:24.940Z,50.80
2017-05-22T21:26:51.872Z,52.20
2017-05-22T21:29:19.263Z,52.20
2017-05-22T21:31:46.173Z,52.30
2017-05-22T21:34:13.086Z,53.00
2017-05-22T21:36:40.415Z,54.10
2017-05-22T21:39:07.301Z,53.90
2017-05-22T21:41:34.204Z,53.60
2017-05-22T21:44:01.528Z,54.60
2017-05-22T21:46:28.440Z,54.90
2017-05-22T21:48:55.357Z,55.30
2017-05-22T21:51:23.456Z,55.60
2017-05-22T21:53:51.011Z,55.10
2017-05-22T21:56:17.913Z,55.00
2017-05-22T21:58:45.177Z,55.10
2017-05-22T22:01:12.084Z,54.90
2017-05-22T22:03:38.986Z,55.50
2017-05-22T22:06:06.317Z,55.70
2017-05-22T22:08:33.295Z,55.70
2017-05-22T22:11:00.206Z,55.30
2017-05-22T22:13:27.559Z,55.20
2017-05-22T22:15:54.474Z,55.60
2017-05-22T22:18:21.453Z,56.30
2017-05-22T22:20:48.807Z,57.30
2017-05-22T22:23:15.744Z,57.80
2017-05-22T22:25:42.645Z,57.70
2017-05-22T22:28:09.841Z,57.10
2017-05-22T22:30:36.869Z,57.60
2017-05-22T22:33:03.816Z,56.20
2017-05-22T22:35:31.096Z,56.50
2017-05-22T22:37:58.023Z,57.70
2017-05-22T22:40:24.948Z,57.80
2017-05-22T22:42:52.220Z,57.60
2017-05-22T22:45:19.140Z,58.00
2017-05-22T22:47:46.064Z,58.00
2017-05-22T22:50:13.325Z,58.50
2017-05-22T22:52:40.229Z,59.30
2017-05-22T22:55:07.172Z,58.00
2017-05-22T22:57:34.370Z,58.10
2017-05-22T23:00:01.280Z,58.10
2017-05-22T23:02:28.184Z,57.90
2017-05-22T23:04:55.423Z,57.60
2017-05-22T23:07:22.343Z,58.90
2017-05-22T23:09:49.264Z,59.30
2017-05-22T23:12:16.712Z,60.00
2017-05-22T23:14:43.636Z,60.60
2017-05-22T23:17:10.557Z,60.70
2017-05-22T23:19:37.842Z,60.00
2017-05-22T23:22:04.744Z,59.80
2017-05-22T23:24:31.632Z,59.70
2017-05-22T23:26:58.885Z,60.60
2017-05-22T23:29:25.781Z,59.90
2017-05-22T23:31:52.688Z,60.20
2017-05-22T23:34:19.972Z,61.10
2017-05-22T23:36:46.908Z,61.40
2017-05-22T23:39:13.837Z,61.20
2017-05-22T23:41:41.093Z,61.50
2017-05-22T23:44:08.018Z,61.80
2017-05-22T23:46:34.916Z,61.90
2017-05-22T23:49:02.215Z,61.00
2017-05-22T23:51:29.153Z,61.20
2017-05-22T23:53:56.069Z,61.30
2017-05-22T23:56:23.364Z,61.90
2017-05-22T23:58:50.300Z,61.30
